CheckWX is a tool to help pilots better visualize weather data.  It is not intended as a substitute for an official pre-flight weather briefing.

05:59:26 UTC

5A6 METAR
Winona-Montgomery County Airport
Winona, Mississippi, USA
Current

24 mins ago

K5A6 250535Z AUTO 18005KT 10SM CLR 20/17 A2987 RMK AO2 T01950170
Observed
Apr-25 @ 05:35 UTC
Wind
  • 180° at 5 KTS
Visibility
10 SM
Flight Rules
VFR
Cloud Levels
  • Clear skies
Temperature
20°C / 68°F
Dewpoint
17°C / 63°F
Humidity
83%
Altimeter
29.87" Hg
Pressure
1011.52 hPa
Previous

44 mins ago

K5A6 250515Z AUTO 16003KT 10SM CLR 19/17 A2987 RMK AO2 T01910167
Observed
Apr-25 @ 05:15 UTC
Wind
  • 160° at 3 KTS
Visibility
10 SM
Flight Rules
VFR
Cloud Levels
  • Clear skies
Temperature
19°C / 66°F
Dewpoint
17°C / 63°F
Humidity
88%
Altimeter
29.87" Hg
Pressure
1011.52 hPa
Previous

1 hour ago

K5A6 250455Z AUTO 00000KT 10SM CLR 20/17 A2988 RMK AO2 T01950166
Observed
Apr-25 @ 04:55 UTC
Visibility
10 SM
Flight Rules
VFR
Cloud Levels
  • Clear skies
Temperature
20°C / 68°F
Dewpoint
17°C / 63°F
Humidity
83%
Altimeter
29.88" Hg
Pressure
1011.82 hPa